createdAt,value
2019-01-26T00:02:31.729Z,104.19999
2019-01-26T00:07:54.394Z,164.3
2019-01-26T00:13:17.740Z,107.5
2019-01-26T00:18:40.459Z,141
2019-01-26T00:24:03.129Z,141.8
2019-01-26T00:29:26.723Z,122.59999
2019-01-26T00:34:49.525Z,157.3
2019-01-26T00:40:12.214Z,183.6
2019-01-26T00:45:34.977Z,295.6
2019-01-26T00:50:57.864Z,254.6
2019-01-26T00:56:20.886Z,367.1
2019-01-26T01:01:43.659Z,348.20001
2019-01-26T01:07:06.363Z,258.5
2019-01-26T01:12:29.049Z,279.6
2019-01-26T01:17:51.913Z,425.29998
2019-01-26T01:23:14.662Z,439.5
2019-01-26T01:28:37.408Z,432.20001
2019-01-26T01:34:00.156Z,447.20001
2019-01-26T01:39:22.889Z,466.79998
2019-01-26T01:44:46.262Z,558.90002
2019-01-26T01:50:09.062Z,354.20001
2019-01-26T01:55:32.868Z,370.39999
2019-01-26T02:00:56.213Z,485.70001
2019-01-26T02:06:18.918Z,298.89999
2019-01-26T02:11:42.619Z,282.6
2019-01-26T02:17:05.395Z,437
2019-01-26T02:22:28.095Z,445.6
2019-01-26T02:27:50.808Z,446.70001
2019-01-26T02:33:13.531Z,205.5
2019-01-26T02:38:36.217Z,261.5
2019-01-26T02:43:58.911Z,671.20001
2019-01-26T02:49:22.155Z,185.69999
2019-01-26T02:54:44.809Z,354.79998
2019-01-26T03:00:07.513Z,332.20001
2019-01-26T03:05:30.259Z,459.6
2019-01-26T03:10:53.141Z,480.79998
2019-01-26T03:16:15.874Z,421.29998
2019-01-26T03:21:38.614Z,418.70001
2019-01-26T03:27:02.351Z,667.09997
2019-01-26T03:32:25.066Z,497.1
2019-01-26T03:37:47.750Z,707.5
2019-01-26T03:43:10.579Z,580.09997
2019-01-26T03:48:33.261Z,759.29998
2019-01-26T03:53:56.635Z,766.59997
2019-01-26T03:59:19.354Z,594
2019-01-26T04:04:42.036Z,875.59997
2019-01-26T04:10:05.582Z,763.29998
2019-01-26T04:15:28.247Z,770.40002
2019-01-26T04:20:50.893Z,625.29998
2019-01-26T04:26:13.571Z,845.79998
2019-01-26T04:31:36.348Z,673.90002
2019-01-26T04:36:59.638Z,546.79998
2019-01-26T04:42:22.509Z,955.5
2019-01-26T04:47:45.215Z,293.1
2019-01-26T04:53:08.009Z,633.09997
2019-01-26T04:58:30.790Z,937.70001
2019-01-26T05:03:53.498Z,553.29998
2019-01-26T05:09:16.192Z,504.20001
2019-01-26T05:14:38.888Z,294.70001
2019-01-26T05:20:01.598Z,385.39999
2019-01-26T05:25:24.364Z,317
2019-01-26T05:30:47.827Z,344.39999
2019-01-26T05:36:10.536Z,231
2019-01-26T05:41:33.196Z,766.79998
2019-01-26T05:46:55.943Z,342
2019-01-26T05:52:18.619Z,488.29998
2019-01-26T05:57:41.325Z,581.70001
2019-01-26T06:03:04.001Z,172.39999
2019-01-26T06:08:26.686Z,151.5
2019-01-26T06:13:50.334Z,318.79998
2019-01-26T06:19:13.691Z,370.29998
2019-01-26T06:24:36.427Z,216.3
2019-01-26T06:30:00.204Z,155.39999
2019-01-26T06:35:22.935Z,148.3
2019-01-26T06:40:45.632Z,184.8
2019-01-26T06:46:08.353Z,141
2019-01-26T06:51:32.621Z,218.39999
2019-01-26T06:56:56.211Z,238.8
2019-01-26T07:02:18.939Z,207.89999
2019-01-26T07:07:42.397Z,167.8
2019-01-26T07:13:05.288Z,193.8
2019-01-26T07:18:28.189Z,119.69999
2019-01-26T07:23:50.843Z,295.1
2019-01-26T07:29:14.118Z,111.9
2019-01-26T07:34:37.671Z,118.9
2019-01-26T07:40:01.144Z,102.8
2019-01-26T07:45:23.831Z,98.199997
2019-01-26T07:50:47.520Z,89
2019-01-26T07:56:10.323Z,83.900002
2019-01-26T08:01:33.098Z,78.800003
2019-01-26T08:06:55.820Z,75.099998
2019-01-26T08:12:20.726Z,68.099998
2019-01-26T08:17:43.559Z,72.300003
2019-01-26T08:23:07.550Z,68
2019-01-26T08:28:30.484Z,70.400002
2019-01-26T08:33:53.133Z,61.299999
2019-01-26T08:39:15.844Z,74.199997
2019-01-26T08:44:38.570Z,59.299999
2019-01-26T08:50:01.282Z,81.099998
2019-01-26T08:55:23.985Z,71.099998
2019-01-26T09:00:46.741Z,85.900002
2019-01-26T09:06:11.074Z,64.699997
2019-01-26T09:11:33.845Z,121.9
2019-01-26T09:16:56.598Z,69.900002
2019-01-26T09:22:19.293Z,70.599998
2019-01-26T09:27:42.004Z,55.299999
2019-01-26T09:33:06.063Z,67.699997
2019-01-26T09:38:29.736Z,55
2019-01-26T09:43:53.089Z,47.900002
2019-01-26T09:49:15.710Z,55
2019-01-26T09:54:38.433Z,63.900002
2019-01-26T10:00:01.124Z,66
2019-01-26T10:05:23.965Z,67.5
2019-01-26T10:10:47.741Z,77.400002
2019-01-26T10:16:10.520Z,83.400002
2019-01-26T10:21:33.578Z,87.900002
2019-01-26T10:26:56.427Z,78.199997
2019-01-26T10:32:19.360Z,99.099998
2019-01-26T10:37:42.436Z,107.09999
2019-01-26T10:43:05.150Z,71.099998
2019-01-26T10:48:27.824Z,74
2019-01-26T10:53:50.977Z,63
2019-01-26T10:59:13.677Z,61.299999
2019-01-26T11:04:36.361Z,65.099998
2019-01-26T11:09:59.091Z,75.699997
2019-01-26T11:15:22.294Z,69.300003
2019-01-26T11:20:45.094Z,69.599998
2019-01-26T11:26:07.841Z,73.400002
2019-01-26T11:31:30.543Z,88.699997
2019-01-26T11:36:53.263Z,122.19999
2019-01-26T11:42:15.948Z,75.5
2019-01-26T11:47:38.623Z,64.900002
2019-01-26T11:53:01.458Z,66.199997
2019-01-26T11:58:24.543Z,57.299999
2019-01-26T12:03:47.469Z,65.400002
2019-01-26T12:09:11.626Z,65.699997
2019-01-26T12:14:34.753Z,70.599998
2019-01-26T12:19:57.510Z,70.400002
2019-01-26T12:25:20.647Z,72.099998
2019-01-26T12:30:42.455Z,55.299999
2019-01-26T12:36:05.371Z,50.900002
2019-01-26T12:41:28.999Z,51.599998
2019-01-26T12:46:52.009Z,70.5
2019-01-26T12:52:15.154Z,38.799999
2019-01-26T12:57:39.148Z,46.400002
2019-01-26T13:03:02.148Z,50.799999
2019-01-26T13:08:26.104Z,40.900002
2019-01-26T13:13:49.025Z,41.400002
2019-01-26T13:19:11.776Z,33.299999
2019-01-26T13:24:34.516Z,38.400002
2019-01-26T13:29:58.266Z,35.299999
2019-01-26T13:35:22.450Z,34.200001
2019-01-26T13:40:45.193Z,32.900002
2019-01-26T13:46:07.923Z,39
2019-01-26T13:51:30.595Z,43.099998
2019-01-26T13:56:54.340Z,49.900002
2019-01-26T14:02:17.440Z,45.400002
2019-01-26T14:07:41.185Z,64.099998
2019-01-26T14:13:03.933Z,60.299999
2019-01-26T14:18:26.601Z,64.699997
2019-01-26T14:23:49.343Z,85.199997
2019-01-26T14:29:12.521Z,76
2019-01-26T14:34:35.497Z,70.900002
2019-01-26T14:39:58.282Z,65.400002
2019-01-26T14:45:21.244Z,58.400002
2019-01-26T14:50:44.689Z,59
2019-01-26T14:56:07.586Z,53.200001
2019-01-26T15:01:30.418Z,65
2019-01-26T15:06:53.376Z,66.699997
2019-01-26T15:12:16.170Z,58.900002
2019-01-26T15:17:39.209Z,49.400002
2019-01-26T15:23:02.035Z,54.599998
2019-01-26T15:28:25.119Z,48.400002
2019-01-26T15:33:47.093Z,54.700001
2019-01-26T15:39:10.110Z,47.700001
2019-01-26T15:44:33.085Z,50.400002
2019-01-26T15:49:56.212Z,49.900002
2019-01-26T15:55:19.329Z,46.299999
2019-01-26T16:00:42.329Z,44.099998
2019-01-26T16:06:06.175Z,42.700001
2019-01-26T16:11:29.145Z,38.400002
2019-01-26T16:16:52.487Z,43.5
2019-01-26T16:22:16.557Z,35.900002
2019-01-26T16:27:39.695Z,36.099998
2019-01-26T16:33:02.513Z,30.1
2019-01-26T16:38:25.657Z,24.700001
2019-01-26T16:43:57.070Z,26.5
2019-01-26T16:49:19.816Z,26.6
2019-01-26T16:54:43.673Z,27.1
2019-01-26T17:00:06.363Z,26.299999
2019-01-26T17:05:29.695Z,28.4
2019-01-26T17:10:53.547Z,31.299999
2019-01-26T17:16:17.257Z,34.599998
2019-01-26T17:21:40.144Z,35.799999
2019-01-26T17:27:02.866Z,35.599998
2019-01-26T17:32:26.391Z,37.200001
2019-01-26T17:37:49.211Z,40.700001
2019-01-26T17:43:14.089Z,44.700001
2019-01-26T17:48:36.872Z,43
2019-01-26T17:53:59.848Z,43
2019-01-26T17:59:23.505Z,45.599998
2019-01-26T18:04:47.052Z,47.400002
2019-01-26T18:10:10.655Z,47.200001
2019-01-26T18:15:33.399Z,45
2019-01-26T18:20:56.500Z,49.599998
2019-01-26T18:26:19.227Z,50.700001
2019-01-26T18:31:42.116Z,55.200001
2019-01-26T18:37:05.149Z,58.299999
2019-01-26T18:42:27.854Z,57.299999
2019-01-26T18:47:50.564Z,60.700001
2019-01-26T18:53:13.595Z,62.799999
2019-01-26T18:58:36.291Z,59.099998
2019-01-26T19:03:59.001Z,55.900002
2019-01-26T19:09:21.740Z,55.099998
2019-01-26T19:14:45.192Z,51
2019-01-26T19:20:08.024Z,51.799999
2019-01-26T19:25:30.934Z,46.5
2019-01-26T19:30:53.704Z,45.700001
2019-01-26T19:36:16.458Z,42.599998
2019-01-26T19:41:39.231Z,43.700001
2019-01-26T19:47:02.544Z,42.299999
2019-01-26T19:52:25.311Z,43.700001
2019-01-26T19:57:48.175Z,43.599998
2019-01-26T20:03:12.118Z,42.200001
2019-01-26T20:08:34.803Z,45.799999
2019-01-26T20:13:57.765Z,44.400002
2019-01-26T20:19:20.730Z,47.200001
2019-01-26T20:24:44.129Z,50.900002
2019-01-26T20:30:07.023Z,47.200001
2019-01-26T20:35:29.873Z,50.700001
2019-01-26T20:40:53.266Z,51.799999
2019-01-26T20:46:17.248Z,58.799999
2019-01-26T20:51:40.172Z,49
2019-01-26T20:57:02.933Z,47.299999
2019-01-26T21:02:36.490Z,48.299999
2019-01-26T21:07:59.483Z,46.299999
2019-01-26T21:13:22.213Z,47.799999
2019-01-26T21:18:45.001Z,48.700001
2019-01-26T21:24:07.690Z,48.299999
2019-01-26T21:29:30.404Z,45.5
2019-01-26T21:34:53.394Z,39.700001
2019-01-26T21:40:16.715Z,38.099998
2019-01-26T21:45:39.569Z,41.599998
2019-01-26T21:51:02.356Z,41.799999
2019-01-26T21:56:25.343Z,43.299999
2019-01-26T22:01:48.278Z,40.400002
2019-01-26T22:07:11.301Z,37.400002
2019-01-26T22:12:34.509Z,38.700001
2019-01-26T22:17:58.184Z,37.599998
2019-01-26T22:23:21.050Z,39.599998
2019-01-26T22:28:44.053Z,37.299999
2019-01-26T22:34:07.117Z,32.900002
2019-01-26T22:39:29.818Z,32.400002
2019-01-26T22:44:52.961Z,31.1
2019-01-26T22:50:16.073Z,31.5
2019-01-26T22:55:39.145Z,26.299999
2019-01-26T23:01:01.875Z,28.799999
2019-01-26T23:06:24.674Z,25.200001
2019-01-26T23:11:47.380Z,26.799999
2019-01-26T23:17:10.317Z,22.1
2019-01-26T23:22:33.385Z,22.4
2019-01-26T23:27:56.048Z,20.700001
2019-01-26T23:33:19.944Z,16.5
2019-01-26T23:38:42.833Z,18.200001
2019-01-26T23:44:05.600Z,15.5
2019-01-26T23:49:28.317Z,15.5
2019-01-26T23:54:51.075Z,14.7
